sensor_id;sensor_type;location;lat;lon;timestamp;P1;durP1;ratioP1;P2;durP2;ratioP2
8476;SDS011;4275;42.854;23.222;2024-02-23T01:04:46;17.27;;;16.47;;
8476;SDS011;4275;42.854;23.222;2024-02-23T01:31:57;17.40;;;16.60;;
8476;SDS011;4275;42.854;23.222;2024-02-23T04:30:31;14.70;;;14.10;;
8476;SDS011;4275;42.854;23.222;2024-02-23T04:32:58;14.87;;;14.27;;
8476;SDS011;4275;42.854;23.222;2024-02-23T04:35:25;14.40;;;13.80;;
8476;SDS011;4275;42.854;23.222;2024-02-23T04:37:52;14.70;;;14.10;;
8476;SDS011;4275;42.854;23.222;2024-02-23T04:40:18;15.00;;;14.30;;
8476;SDS011;4275;42.854;23.222;2024-02-23T04:42:45;14.97;;;14.37;;
8476;SDS011;4275;42.854;23.222;2024-02-23T04:45:14;14.67;;;14.07;;
8476;SDS011;4275;42.854;23.222;2024-02-23T04:47:41;14.70;;;14.10;;
8476;SDS011;4275;42.854;23.222;2024-02-23T04:50:08;14.47;;;13.87;;
8476;SDS011;4275;42.854;23.222;2024-02-23T04:52:35;14.30;;;13.70;;
8476;SDS011;4275;42.854;23.222;2024-02-23T04:55:02;14.10;;;13.50;;
8476;SDS011;4275;42.854;23.222;2024-02-23T04:57:30;13.57;;;13.07;;
8476;SDS011;4275;42.854;23.222;2024-02-23T04:59:57;14.03;;;13.43;;
8476;SDS011;4275;42.854;23.222;2024-02-23T05:02:26;14.33;;;13.73;;
8476;SDS011;4275;42.854;23.222;2024-02-23T05:04:59;13.20;;;12.70;;
8476;SDS011;4275;42.854;23.222;2024-02-23T05:07:26;13.20;;;12.70;;
8476;SDS011;4275;42.854;23.222;2024-02-23T05:09:53;14.40;;;13.90;;
8476;SDS011;4275;42.854;23.222;2024-02-23T05:12:19;15.17;;;14.60;;
8476;SDS011;4275;42.854;23.222;2024-02-23T05:14:46;12.77;;;12.27;;
8476;SDS011;4275;42.854;23.222;2024-02-23T05:17:12;12.80;;;12.30;;
8476;SDS011;4275;42.854;23.222;2024-02-23T05:19:41;12.10;;;11.70;;
8476;SDS011;4275;42.854;23.222;2024-02-23T05:22:07;12.37;;;11.97;;
8476;SDS011;4275;42.854;23.222;2024-02-23T05:24:34;11.83;;;11.43;;
8476;SDS011;4275;42.854;23.222;2024-02-23T05:27:01;12.10;;;11.70;;
8476;SDS011;4275;42.854;23.222;2024-02-23T05:29:28;11.90;;;11.50;;
8476;SDS011;4275;42.854;23.222;2024-02-23T05:31:55;11.60;;;11.20;;
8476;SDS011;4275;42.854;23.222;2024-02-23T05:34:22;11.70;;;11.30;;
8476;SDS011;4275;42.854;23.222;2024-02-23T05:36:50;11.83;;;11.43;;
8476;SDS011;4275;42.854;23.222;2024-02-23T05:39:35;11.53;;;11.13;;
8476;SDS011;4275;42.854;23.222;2024-02-23T05:42:02;11.80;;;11.40;;
8476;SDS011;4275;42.854;23.222;2024-02-23T05:44:30;11.70;;;11.30;;
8476;SDS011;4275;42.854;23.222;2024-02-23T05:46:57;11.90;;;11.50;;
8476;SDS011;4275;42.854;23.222;2024-02-23T05:49:23;12.30;;;11.90;;
8476;SDS011;4275;42.854;23.222;2024-02-23T05:51:52;12.63;;;12.13;;
8476;SDS011;4275;42.854;23.222;2024-02-23T05:54:20;13.20;;;12.70;;
8476;SDS011;4275;42.854;23.222;2024-02-23T05:56:50;13.00;;;12.50;;
8476;SDS011;4275;42.854;23.222;2024-02-23T05:59:17;12.90;;;12.40;;
8476;SDS011;4275;42.854;23.222;2024-02-23T06:01:44;13.23;;;12.73;;
8476;SDS011;4275;42.854;23.222;2024-02-23T06:04:10;13.50;;;13.00;;
8476;SDS011;4275;42.854;23.222;2024-02-23T06:06:40;13.50;;;13.00;;
8476;SDS011;4275;42.854;23.222;2024-02-23T06:09:09;14.10;;;13.50;;
8476;SDS011;4275;42.854;23.222;2024-02-23T06:11:36;14.27;;;13.67;;
8476;SDS011;4275;42.854;23.222;2024-02-23T06:14:03;14.40;;;13.80;;
8476;SDS011;4275;42.854;23.222;2024-02-23T06:16:29;15.57;;;14.87;;
8476;SDS011;4275;42.854;23.222;2024-02-23T06:18:56;16.43;;;15.73;;
8476;SDS011;4275;42.854;23.222;2024-02-23T06:21:23;15.52;;;14.82;;
8476;SDS011;4275;42.854;23.222;2024-02-23T06:23:50;15.40;;;14.70;;
8476;SDS011;4275;42.854;23.222;2024-02-23T06:26:19;16.93;;;16.03;;
8476;SDS011;4275;42.854;23.222;2024-02-23T06:28:45;17.53;;;16.53;;
8476;SDS011;4275;42.854;23.222;2024-02-23T06:31:14;16.40;;;15.60;;
8476;SDS011;4275;42.854;23.222;2024-02-23T06:33:41;16.50;;;15.60;;
8476;SDS011;4275;42.854;23.222;2024-02-23T06:36:09;16.70;;;15.80;;
8476;SDS011;4275;42.854;23.222;2024-02-23T06:38:36;16.55;;;15.65;;
8476;SDS011;4275;42.854;23.222;2024-02-23T06:41:03;16.98;;;16.00;;
8476;SDS011;4275;42.854;23.222;2024-02-23T06:43:32;17.10;;;16.10;;
8476;SDS011;4275;42.854;23.222;2024-02-23T06:46:03;16.70;;;15.80;;
8476;SDS011;4275;42.854;23.222;2024-02-23T06:48:30;17.05;;;16.05;;
8476;SDS011;4275;42.854;23.222;2024-02-23T06:50:57;17.60;;;16.60;;
8476;SDS011;4275;42.854;23.222;2024-02-23T06:53:24;17.17;;;16.27;;
8476;SDS011;4275;42.854;23.222;2024-02-23T06:55:51;17.50;;;16.50;;
8476;SDS011;4275;42.854;23.222;2024-02-23T06:58:18;17.60;;;16.60;;
8476;SDS011;4275;42.854;23.222;2024-02-23T07:00:47;17.70;;;16.70;;
8476;SDS011;4275;42.854;23.222;2024-02-23T07:03:14;17.70;;;16.70;;
8476;SDS011;4275;42.854;23.222;2024-02-23T07:05:41;17.65;;;16.65;;
8476;SDS011;4275;42.854;23.222;2024-02-23T07:08:08;17.98;;;16.98;;
8476;SDS011;4275;42.854;23.222;2024-02-23T07:10:35;18.05;;;17.05;;
8476;SDS011;4275;42.854;23.222;2024-02-23T07:13:03;18.00;;;17.00;;
8476;SDS011;4275;42.854;23.222;2024-02-23T07:15:30;18.05;;;17.05;;
8476;SDS011;4275;42.854;23.222;2024-02-23T07:17:59;17.88;;;16.88;;
8476;SDS011;4275;42.854;23.222;2024-02-23T07:20:26;18.02;;;17.02;;
8476;SDS011;4275;42.854;23.222;2024-02-23T07:22:53;18.60;;;17.60;;
8476;SDS011;4275;42.854;23.222;2024-02-23T07:25:20;17.88;;;16.88;;
8476;SDS011;4275;42.854;23.222;2024-02-23T07:27:47;21.40;;;20.20;;
8476;SDS011;4275;42.854;23.222;2024-02-23T07:30:15;23.00;;;21.70;;
8476;SDS011;4275;42.854;23.222;2024-02-23T07:32:42;17.73;;;16.73;;
8476;SDS011;4275;42.854;23.222;2024-02-23T07:35:11;21.73;;;20.42;;
8476;SDS011;4275;42.854;23.222;2024-02-23T07:37:37;22.13;;;20.73;;
8476;SDS011;4275;42.854;23.222;2024-02-23T07:40:05;19.15;;;17.85;;
8476;SDS011;4275;42.854;23.222;2024-02-23T07:42:33;20.15;;;18.75;;
8476;SDS011;4275;42.854;23.222;2024-02-23T07:45:01;23.02;;;21.52;;
8476;SDS011;4275;42.854;23.222;2024-02-23T07:47:29;23.25;;;21.65;;
8476;SDS011;4275;42.854;23.222;2024-02-23T07:49:56;19.77;;;18.38;;
8476;SDS011;4275;42.854;23.222;2024-02-23T07:52:25;19.80;;;18.40;;
8476;SDS011;4275;42.854;23.222;2024-02-23T07:54:52;22.52;;;20.92;;
8476;SDS011;4275;42.854;23.222;2024-02-23T07:57:19;23.80;;;22.10;;
8476;SDS011;4275;42.854;23.222;2024-02-23T07:59:46;20.95;;;19.35;;
8476;SDS011;4275;42.854;23.222;2024-02-23T08:02:14;25.00;;;23.20;;
8476;SDS011;4275;42.854;23.222;2024-02-23T08:04:41;24.05;;;22.35;;
8476;SDS011;4275;42.854;23.222;2024-02-23T08:07:08;20.00;;;18.50;;
8476;SDS011;4275;42.854;23.222;2024-02-23T08:09:37;20.55;;;19.05;;
8476;SDS011;4275;42.854;23.222;2024-02-23T08:14:52;21.58;;;19.88;;
8476;SDS011;4275;42.854;23.222;2024-02-23T08:17:20;21.42;;;19.63;;
8476;SDS011;4275;42.854;23.222;2024-02-23T08:19:47;26.65;;;24.60;;
8476;SDS011;4275;42.854;23.222;2024-02-23T08:22:14;27.40;;;25.40;;
8476;SDS011;4275;42.854;23.222;2024-02-23T08:24:42;22.27;;;20.50;;
8476;SDS011;4275;42.854;23.222;2024-02-23T08:27:09;23.38;;;21.48;;
8476;SDS011;4275;42.854;23.222;2024-02-23T08:29:37;27.80;;;25.70;;
8476;SDS011;4275;42.854;23.222;2024-02-23T08:32:05;22.88;;;20.98;;
8476;SDS011;4275;42.854;23.222;2024-02-23T08:34:32;23.85;;;21.95;;
8476;SDS011;4275;42.854;23.222;2024-02-23T08:36:59;26.90;;;24.80;;
8476;SDS011;4275;42.854;23.222;2024-02-23T08:39:26;26.48;;;24.38;;
8476;SDS011;4275;42.854;23.222;2024-02-23T08:41:55;23.17;;;21.27;;
8476;SDS011;4275;42.854;23.222;2024-02-23T08:44:22;24.48;;;22.48;;
8476;SDS011;4275;42.854;23.222;2024-02-23T08:46:49;27.42;;;25.33;;
8476;SDS011;4275;42.854;23.222;2024-02-23T08:49:16;23.20;;;21.30;;
8476;SDS011;4275;42.854;23.222;2024-02-23T08:51:43;23.33;;;21.42;;
8476;SDS011;4275;42.854;23.222;2024-02-23T08:54:10;26.75;;;24.65;;
8476;SDS011;4275;42.854;23.222;2024-02-23T08:56:46;23.95;;;22.00;;
8476;SDS011;4275;42.854;23.222;2024-02-23T08:59:14;23.77;;;21.77;;
8476;SDS011;4275;42.854;23.222;2024-02-23T09:01:41;27.33;;;25.23;;
8476;SDS011;4275;42.854;23.222;2024-02-23T09:04:09;26.90;;;24.80;;
8476;SDS011;4275;42.854;23.222;2024-02-23T09:06:36;23.95;;;22.05;;
8476;SDS011;4275;42.854;23.222;2024-02-23T09:09:03;23.90;;;21.95;;
8476;SDS011;4275;42.854;23.222;2024-02-23T09:11:30;25.63;;;23.63;;
8476;SDS011;4275;42.854;23.222;2024-02-23T09:13:57;23.58;;;21.67;;
8476;SDS011;4275;42.854;23.222;2024-02-23T09:16:26;23.58;;;21.67;;
8476;SDS011;4275;42.854;23.222;2024-02-23T09:18:52;25.27;;;23.27;;
8476;SDS011;4275;42.854;23.222;2024-02-23T09:21:19;27.15;;;24.98;;
8476;SDS011;4275;42.854;23.222;2024-02-23T09:23:46;24.75;;;22.85;;
8476;SDS011;4275;42.854;23.222;2024-02-23T09:26:13;25.60;;;23.60;;
8476;SDS011;4275;42.854;23.222;2024-02-23T09:28:41;26.02;;;24.02;;
8476;SDS011;4275;42.854;23.222;2024-02-23T09:31:10;23.77;;;21.88;;
8476;SDS011;4275;42.854;23.222;2024-02-23T09:33:38;32.30;;;30.00;;
8476;SDS011;4275;42.854;23.222;2024-02-23T09:36:06;27.00;;;25.00;;
8476;SDS011;4275;42.854;23.222;2024-02-23T09:38:35;23.63;;;21.73;;
8476;SDS011;4275;42.854;23.222;2024-02-23T09:41:02;23.13;;;21.33;;
8476;SDS011;4275;42.854;23.222;2024-02-23T09:43:29;25.58;;;23.67;;
8476;SDS011;4275;42.854;23.222;2024-02-23T09:45:57;24.00;;;22.10;;
8476;SDS011;4275;42.854;23.222;2024-02-23T09:48:24;22.63;;;20.83;;
8476;SDS011;4275;42.854;23.222;2024-02-23T09:50:53;33.65;;;31.25;;
8476;SDS011;4275;42.854;23.222;2024-02-23T09:53:22;26.85;;;24.75;;
8476;SDS011;4275;42.854;23.222;2024-02-23T09:55:52;23.38;;;21.48;;
8476;SDS011;4275;42.854;23.222;2024-02-23T09:58:20;28.58;;;26.38;;
8476;SDS011;4275;42.854;23.222;2024-02-23T10:00:49;27.10;;;25.10;;
8476;SDS011;4275;42.854;23.222;2024-02-23T10:03:16;22.67;;;20.88;;
8476;SDS011;4275;42.854;23.222;2024-02-23T10:05:43;23.95;;;22.05;;
8476;SDS011;4275;42.854;23.222;2024-02-23T10:08:12;26.42;;;24.52;;
8476;SDS011;4275;42.854;23.222;2024-02-23T10:10:39;22.38;;;20.58;;
8476;SDS011;4275;42.854;23.222;2024-02-23T10:16:19;25.38;;;23.48;;
8476;SDS011;4275;42.854;23.222;2024-02-23T10:18:46;22.60;;;20.80;;
8476;SDS011;4275;42.854;23.222;2024-02-23T10:21:14;23.42;;;21.52;;
8476;SDS011;4275;42.854;23.222;2024-02-23T10:23:43;28.10;;;26.00;;
8476;SDS011;4275;42.854;23.222;2024-02-23T10:26:11;40.47;;;37.78;;
8476;SDS011;4275;42.854;23.222;2024-02-23T10:28:38;22.40;;;20.60;;
8476;SDS011;4275;42.854;23.222;2024-02-23T10:31:13;28.50;;;26.50;;
8476;SDS011;4275;42.854;23.222;2024-02-23T10:33:40;26.23;;;24.20;;
8476;SDS011;4275;42.854;23.222;2024-02-23T10:36:09;22.55;;;20.73;;
8476;SDS011;4275;42.854;23.222;2024-02-23T10:38:43;34.97;;;32.50;;
8476;SDS011;4275;42.854;23.222;2024-02-23T10:41:12;27.27;;;25.17;;
8476;SDS011;4275;42.854;23.222;2024-02-23T10:43:41;22.85;;;20.95;;
8476;SDS011;4275;42.854;23.222;2024-02-23T10:46:10;22.95;;;21.15;;
8476;SDS011;4275;42.854;23.222;2024-02-23T10:48:39;28.60;;;26.50;;
8476;SDS011;4275;42.854;23.222;2024-02-23T10:51:07;32.55;;;30.25;;
8476;SDS011;4275;42.854;23.222;2024-02-23T10:53:36;22.95;;;21.08;;
8476;SDS011;4275;42.854;23.222;2024-02-23T10:56:07;27.38;;;25.27;;
8476;SDS011;4275;42.854;23.222;2024-02-23T10:58:34;29.30;;;27.00;;
8476;SDS011;4275;42.854;23.222;2024-02-23T11:01:02;22.92;;;21.02;;
8476;SDS011;4275;42.854;23.222;2024-02-23T11:03:31;28.35;;;26.17;;
8476;SDS011;4275;42.854;23.222;2024-02-23T11:05:59;29.02;;;26.83;;
8476;SDS011;4275;42.854;23.222;2024-02-23T11:08:28;23.25;;;21.35;;
8476;SDS011;4275;42.854;23.222;2024-02-23T11:10:55;24.10;;;22.10;;
8476;SDS011;4275;42.854;23.222;2024-02-23T11:13:30;29.70;;;27.50;;
8476;SDS011;4275;42.854;23.222;2024-02-23T11:16:01;24.45;;;22.45;;
8476;SDS011;4275;42.854;23.222;2024-02-23T11:18:29;24.30;;;22.40;;
8476;SDS011;4275;42.854;23.222;2024-02-23T11:20:58;28.83;;;26.63;;
8476;SDS011;4275;42.854;23.222;2024-02-23T11:23:26;24.17;;;22.25;;
8476;SDS011;4275;42.854;23.222;2024-02-23T11:29:16;29.10;;;26.80;;
8476;SDS011;4275;42.854;23.222;2024-02-23T11:31:45;24.55;;;22.55;;
8476;SDS011;4275;42.854;23.222;2024-02-23T11:34:13;25.25;;;23.25;;
8476;SDS011;4275;42.854;23.222;2024-02-23T11:36:50;27.20;;;25.17;;
8476;SDS011;4275;42.854;23.222;2024-02-23T11:39:18;24.15;;;22.15;;
8476;SDS011;4275;42.854;23.222;2024-02-23T11:41:55;38.05;;;35.38;;
8476;SDS011;4275;42.854;23.222;2024-02-23T11:44:26;28.15;;;26.05;;
8476;SDS011;4275;42.854;23.222;2024-02-23T11:46:53;27.58;;;25.38;;
8476;SDS011;4275;42.854;23.222;2024-02-23T11:49:20;24.17;;;22.17;;
8476;SDS011;4275;42.854;23.222;2024-02-23T11:51:46;29.55;;;27.27;;
8476;SDS011;4275;42.854;23.222;2024-02-23T11:54:14;33.33;;;30.73;;
8476;SDS011;4275;42.854;23.222;2024-02-23T11:56:41;24.83;;;22.83;;
8476;SDS011;4275;42.854;23.222;2024-02-23T11:59:08;29.13;;;26.92;;
8476;SDS011;4275;42.854;23.222;2024-02-23T12:01:36;30.17;;;27.88;;
8476;SDS011;4275;42.854;23.222;2024-02-23T12:04:03;24.95;;;22.85;;
8476;SDS011;4275;42.854;23.222;2024-02-23T12:06:30;32.75;;;30.27;;
8476;SDS011;4275;42.854;23.222;2024-02-23T12:08:58;29.23;;;26.92;;
8476;SDS011;4275;42.854;23.222;2024-02-23T12:11:25;26.13;;;23.92;;
8476;SDS011;4275;42.854;23.222;2024-02-23T12:13:53;25.52;;;23.38;;
8476;SDS011;4275;42.854;23.222;2024-02-23T12:16:20;29.15;;;26.85;;
8476;SDS011;4275;42.854;23.222;2024-02-23T12:18:53;36.95;;;34.20;;
8476;SDS011;4275;42.854;23.222;2024-02-23T12:21:22;25.45;;;23.30;;
8476;SDS011;4275;42.854;23.222;2024-02-23T12:23:50;25.05;;;23.05;;
8476;SDS011;4275;42.854;23.222;2024-02-23T12:26:17;25.08;;;22.98;;
8476;SDS011;4275;42.854;23.222;2024-02-23T12:28:44;25.58;;;23.48;;
8476;SDS011;4275;42.854;23.222;2024-02-23T12:31:12;28.55;;;26.35;;
8476;SDS011;4275;42.854;23.222;2024-02-23T12:33:39;30.95;;;28.55;;
8476;SDS011;4275;42.854;23.222;2024-02-23T12:36:08;25.52;;;23.52;;
8476;SDS011;4275;42.854;23.222;2024-02-23T12:38:36;25.83;;;23.73;;
8476;SDS011;4275;42.854;23.222;2024-02-23T12:41:03;30.42;;;28.13;;
8476;SDS011;4275;42.854;23.222;2024-02-23T12:43:31;25.90;;;23.80;;
8476;SDS011;4275;42.854;23.222;2024-02-23T12:45:58;25.40;;;23.30;;
8476;SDS011;4275;42.854;23.222;2024-02-23T12:48:38;25.58;;;23.48;;
8476;SDS011;4275;42.854;23.222;2024-02-23T12:51:05;24.42;;;22.42;;
8476;SDS011;4275;42.854;23.222;2024-02-23T12:53:34;24.70;;;22.70;;
8476;SDS011;4275;42.854;23.222;2024-02-23T12:56:03;27.45;;;25.35;;
8476;SDS011;4275;42.854;23.222;2024-02-23T12:58:31;26.70;;;24.60;;
8476;SDS011;4275;42.854;23.222;2024-02-23T13:00:58;26.08;;;23.98;;
8476;SDS011;4275;42.854;23.222;2024-02-23T13:03:25;25.42;;;23.33;;
8476;SDS011;4275;42.854;23.222;2024-02-23T13:05:54;30.50;;;28.20;;
8476;SDS011;4275;42.854;23.222;2024-02-23T13:08:21;26.38;;;24.27;;
8476;SDS011;4275;42.854;23.222;2024-02-23T13:14:00;33.63;;;31.15;;
8476;SDS011;4275;42.854;23.222;2024-02-23T13:16:27;25.33;;;23.23;;
8476;SDS011;4275;42.854;23.222;2024-02-23T13:18:54;25.27;;;23.17;;
8476;SDS011;4275;42.854;23.222;2024-02-23T13:21:21;32.13;;;29.63;;
8476;SDS011;4275;42.854;23.222;2024-02-23T13:27:12;25.33;;;23.23;;
8476;SDS011;4275;42.854;23.222;2024-02-23T13:29:39;26.33;;;24.13;;
8476;SDS011;4275;42.854;23.222;2024-02-23T13:32:06;25.40;;;23.30;;
8476;SDS011;4275;42.854;23.222;2024-02-23T13:34:33;25.30;;;23.20;;
8476;SDS011;4275;42.854;23.222;2024-02-23T13:37:00;26.73;;;24.58;;
8476;SDS011;4275;42.854;23.222;2024-02-23T13:39:27;32.72;;;30.23;;
8476;SDS011;4275;42.854;23.222;2024-02-23T13:41:54;25.88;;;23.67;;
8476;SDS011;4275;42.854;23.222;2024-02-23T13:44:22;25.73;;;23.58;;
8476;SDS011;4275;42.854;23.222;2024-02-23T13:46:49;26.98;;;24.77;;
8476;SDS011;4275;42.854;23.222;2024-02-23T13:49:16;26.27;;;24.13;;
8476;SDS011;4275;42.854;23.222;2024-02-23T13:51:43;26.13;;;24.02;;
8476;SDS011;4275;42.854;23.222;2024-02-23T13:54:10;31.77;;;29.38;;
8476;SDS011;4275;42.854;23.222;2024-02-23T13:56:37;35.33;;;32.72;;
8476;SDS011;4275;42.854;23.222;2024-02-23T13:59:04;25.13;;;23.02;;
8476;SDS011;4275;42.854;23.222;2024-02-23T14:01:32;25.55;;;23.45;;
8476;SDS011;4275;42.854;23.222;2024-02-23T14:04:00;33.30;;;30.83;;
8476;SDS011;4275;42.854;23.222;2024-02-23T14:06:33;24.58;;;22.58;;
8476;SDS011;4275;42.854;23.222;2024-02-23T14:09:00;24.65;;;22.65;;
8476;SDS011;4275;42.854;23.222;2024-02-23T14:11:28;27.20;;;25.00;;
8476;SDS011;4275;42.854;23.222;2024-02-23T14:13:55;24.77;;;22.77;;
8476;SDS011;4275;42.854;23.222;2024-02-23T14:16:28;33.33;;;30.92;;
8476;SDS011;4275;42.854;23.222;2024-02-23T14:18:57;33.67;;;31.23;;
8476;SDS011;4275;42.854;23.222;2024-02-23T14:21:24;31.23;;;28.92;;
8476;SDS011;4275;42.854;23.222;2024-02-23T14:23:51;24.80;;;22.80;;
8476;SDS011;4275;42.854;23.222;2024-02-23T14:26:18;24.92;;;22.92;;
8476;SDS011;4275;42.854;23.222;2024-02-23T14:28:44;39.00;;;36.38;;
8476;SDS011;4275;42.854;23.222;2024-02-23T14:31:11;24.58;;;22.67;;
8476;SDS011;4275;42.854;23.222;2024-02-23T14:33:38;24.50;;;22.60;;
8476;SDS011;4275;42.854;23.222;2024-02-23T14:36:07;26.33;;;24.35;;
8476;SDS011;4275;42.854;23.222;2024-02-23T14:38:34;25.02;;;23.02;;
8476;SDS011;4275;42.854;23.222;2024-02-23T14:41:01;34.80;;;32.38;;
8476;SDS011;4275;42.854;23.222;2024-02-23T14:43:28;24.80;;;22.80;;
8476;SDS011;4275;42.854;23.222;2024-02-23T14:45:56;25.08;;;23.08;;
8476;SDS011;4275;42.854;23.222;2024-02-23T14:48:23;25.77;;;23.75;;
8476;SDS011;4275;42.854;23.222;2024-02-23T14:50:50;25.63;;;23.52;;
8476;SDS011;4275;42.854;23.222;2024-02-23T14:53:18;33.25;;;30.83;;
8476;SDS011;4275;42.854;23.222;2024-02-23T14:55:45;24.90;;;22.90;;
8476;SDS011;4275;42.854;23.222;2024-02-23T14:58:12;25.83;;;23.73;;
8476;SDS011;4275;42.854;23.222;2024-02-23T15:00:39;30.40;;;28.10;;
8476;SDS011;4275;42.854;23.222;2024-02-23T15:03:06;27.95;;;25.85;;
8476;SDS011;4275;42.854;23.222;2024-02-23T15:08:57;29.90;;;27.65;;
8476;SDS011;4275;42.854;23.222;2024-02-23T15:14:15;25.90;;;23.80;;
8476;SDS011;4275;42.854;23.222;2024-02-23T15:16:42;32.50;;;30.00;;
8476;SDS011;4275;42.854;23.222;2024-02-23T15:19:09;26.10;;;24.00;;
8476;SDS011;4275;42.854;23.222;2024-02-23T15:21:36;25.65;;;23.55;;
8476;SDS011;4275;42.854;23.222;2024-02-23T15:24:07;33.28;;;30.77;;
8476;SDS011;4275;42.854;23.222;2024-02-23T15:26:34;29.48;;;27.17;;
8476;SDS011;4275;42.854;23.222;2024-02-23T15:29:01;24.27;;;22.20;;
8476;SDS011;4275;42.854;23.222;2024-02-23T15:31:29;26.17;;;24.08;;
8476;SDS011;4275;42.854;23.222;2024-02-23T15:33:56;27.17;;;25.05;;
8476;SDS011;4275;42.854;23.222;2024-02-23T15:36:25;24.08;;;22.08;;
8476;SDS011;4275;42.854;23.222;2024-02-23T15:38:52;24.65;;;22.55;;
8476;SDS011;4275;42.854;23.222;2024-02-23T15:41:25;28.25;;;25.98;;
8476;SDS011;4275;42.854;23.222;2024-02-23T15:43:52;24.67;;;22.58;;
8476;SDS011;4275;42.854;23.222;2024-02-23T15:46:19;24.30;;;22.27;;
8476;SDS011;4275;42.854;23.222;2024-02-23T15:48:46;28.98;;;26.77;;
8476;SDS011;4275;42.854;23.222;2024-02-23T15:51:12;28.38;;;26.17;;
8476;SDS011;4275;42.854;23.222;2024-02-23T15:53:40;23.85;;;21.85;;
8476;SDS011;4275;42.854;23.222;2024-02-23T15:56:07;25.30;;;23.30;;
8476;SDS011;4275;42.854;23.222;2024-02-23T15:58:35;27.17;;;25.08;;
8476;SDS011;4275;42.854;23.222;2024-02-23T16:01:02;23.35;;;21.45;;
8476;SDS011;4275;42.854;23.222;2024-02-23T16:03:29;23.35;;;21.45;;
8476;SDS011;4275;42.854;23.222;2024-02-23T16:05:57;28.85;;;26.65;;
8476;SDS011;4275;42.854;23.222;2024-02-23T16:08:37;22.88;;;20.98;;
8476;SDS011;4275;42.854;23.222;2024-02-23T16:11:07;23.17;;;21.27;;
8476;SDS011;4275;42.854;23.222;2024-02-23T16:13:36;25.40;;;23.40;;
8476;SDS011;4275;42.854;23.222;2024-02-23T16:16:04;23.40;;;21.50;;
8476;SDS011;4275;42.854;23.222;2024-02-23T16:18:42;24.10;;;22.10;;
8476;SDS011;4275;42.854;23.222;2024-02-23T16:21:17;26.20;;;24.10;;
8476;SDS011;4275;42.854;23.222;2024-02-23T16:23:53;25.25;;;23.25;;
8476;SDS011;4275;42.854;23.222;2024-02-23T16:26:19;23.17;;;21.27;;
8476;SDS011;4275;42.854;23.222;2024-02-23T16:28:48;26.25;;;24.25;;
8476;SDS011;4275;42.854;23.222;2024-02-23T16:31:16;26.20;;;24.20;;
8476;SDS011;4275;42.854;23.222;2024-02-23T16:33:43;23.30;;;21.40;;
8476;SDS011;4275;42.854;23.222;2024-02-23T16:36:10;22.88;;;21.08;;
8476;SDS011;4275;42.854;23.222;2024-02-23T16:38:37;24.83;;;23.02;;
8476;SDS011;4275;42.854;23.222;2024-02-23T16:41:05;23.10;;;21.33;;
8476;SDS011;4275;42.854;23.222;2024-02-23T16:43:32;23.02;;;21.23;;
8476;SDS011;4275;42.854;23.222;2024-02-23T16:46:01;25.17;;;23.27;;
8476;SDS011;4275;42.854;23.222;2024-02-23T16:48:28;26.50;;;24.55;;
8476;SDS011;4275;42.854;23.222;2024-02-23T16:50:55;23.20;;;21.40;;
8476;SDS011;4275;42.854;23.222;2024-02-23T16:53:23;25.67;;;23.77;;
8476;SDS011;4275;42.854;23.222;2024-02-23T16:55:50;25.00;;;23.20;;
8476;SDS011;4275;42.854;23.222;2024-02-23T16:58:16;23.15;;;21.35;;
8476;SDS011;4275;42.854;23.222;2024-02-23T17:00:47;23.75;;;21.95;;
8476;SDS011;4275;42.854;23.222;2024-02-23T17:03:15;26.27;;;24.38;;
8476;SDS011;4275;42.854;23.222;2024-02-23T17:05:42;23.15;;;21.35;;
8476;SDS011;4275;42.854;23.222;2024-02-23T17:08:09;23.88;;;22.08;;
8476;SDS011;4275;42.854;23.222;2024-02-23T17:10:36;25.92;;;24.02;;
8476;SDS011;4275;42.854;23.222;2024-02-23T17:13:03;26.23;;;24.33;;
8476;SDS011;4275;42.854;23.222;2024-02-23T17:15:30;24.02;;;22.23;;
8476;SDS011;4275;42.854;23.222;2024-02-23T17:17:57;25.48;;;23.65;;
8476;SDS011;4275;42.854;23.222;2024-02-23T17:20:25;28.77;;;26.77;;
8476;SDS011;4275;42.854;23.222;2024-02-23T17:22:53;23.83;;;22.02;;
8476;SDS011;4275;42.854;23.222;2024-02-23T17:25:20;23.30;;;21.50;;
8476;SDS011;4275;42.854;23.222;2024-02-23T17:31:08;23.05;;;21.35;;
8476;SDS011;4275;42.854;23.222;2024-02-23T17:33:35;22.58;;;20.88;;
8476;SDS011;4275;42.854;23.222;2024-02-23T17:36:04;24.80;;;23.00;;
8476;SDS011;4275;42.854;23.222;2024-02-23T17:38:32;23.48;;;21.75;;
8476;SDS011;4275;42.854;23.222;2024-02-23T17:40:59;22.98;;;21.27;;
8476;SDS011;4275;42.854;23.222;2024-02-23T17:43:26;25.02;;;23.15;;
8476;SDS011;4275;42.854;23.222;2024-02-23T17:45:52;24.98;;;23.17;;
8476;SDS011;4275;42.854;23.222;2024-02-23T17:48:19;23.00;;;21.30;;
8476;SDS011;4275;42.854;23.222;2024-02-23T17:50:46;22.85;;;21.15;;
8476;SDS011;4275;42.854;23.222;2024-02-23T17:53:15;25.80;;;23.90;;
8476;SDS011;4275;42.854;23.222;2024-02-23T17:55:42;23.95;;;22.15;;
8476;SDS011;4275;42.854;23.222;2024-02-23T17:58:09;23.15;;;21.45;;
8476;SDS011;4275;42.854;23.222;2024-02-23T18:00:36;22.90;;;21.20;;
8476;SDS011;4275;42.854;23.222;2024-02-23T18:03:03;25.98;;;24.17;;
8476;SDS011;4275;42.854;23.222;2024-02-23T18:05:30;22.83;;;21.23;;
8476;SDS011;4275;42.854;23.222;2024-02-23T18:07:57;22.73;;;21.13;;
8476;SDS011;4275;42.854;23.222;2024-02-23T18:10:26;23.80;;;22.10;;
8476;SDS011;4275;42.854;23.222;2024-02-23T18:12:53;22.40;;;20.80;;
8476;SDS011;4275;42.854;23.222;2024-02-23T18:15:20;22.63;;;21.02;;
8476;SDS011;4275;42.854;23.222;2024-02-23T18:17:47;22.13;;;20.60;;
8476;SDS011;4275;42.854;23.222;2024-02-23T18:20:15;22.08;;;20.58;;
8476;SDS011;4275;42.854;23.222;2024-02-23T18:22:43;22.52;;;21.02;;
8476;SDS011;4275;42.854;23.222;2024-02-23T18:25:10;21.95;;;20.45;;
8476;SDS011;4275;42.854;23.222;2024-02-23T18:27:39;22.40;;;20.90;;
8476;SDS011;4275;42.854;23.222;2024-02-23T18:30:09;22.13;;;20.63;;
8476;SDS011;4275;42.854;23.222;2024-02-23T18:32:37;21.98;;;20.48;;
8476;SDS011;4275;42.854;23.222;2024-02-23T18:35:04;22.15;;;20.65;;
8476;SDS011;4275;42.854;23.222;2024-02-23T18:37:33;21.73;;;20.23;;
8476;SDS011;4275;42.854;23.222;2024-02-23T18:40:00;21.45;;;19.95;;
8476;SDS011;4275;42.854;23.222;2024-02-23T18:42:40;21.80;;;20.30;;
8476;SDS011;4275;42.854;23.222;2024-02-23T18:45:07;21.15;;;19.75;;
8476;SDS011;4275;42.854;23.222;2024-02-23T18:47:34;22.10;;;20.60;;
8476;SDS011;4275;42.854;23.222;2024-02-23T18:50:01;21.90;;;20.40;;
8476;SDS011;4275;42.854;23.222;2024-02-23T18:52:28;23.20;;;21.60;;
8476;SDS011;4275;42.854;23.222;2024-02-23T18:54:55;21.35;;;19.92;;
8476;SDS011;4275;42.854;23.222;2024-02-23T18:57:23;21.52;;;20.05;;
8476;SDS011;4275;42.854;23.222;2024-02-23T18:59:51;21.58;;;20.17;;
8476;SDS011;4275;42.854;23.222;2024-02-23T19:02:18;21.00;;;19.60;;
8476;SDS011;4275;42.854;23.222;2024-02-23T19:04:45;21.08;;;19.67;;
8476;SDS011;4275;42.854;23.222;2024-02-23T19:07:12;21.15;;;19.75;;
8476;SDS011;4275;42.854;23.222;2024-02-23T19:15:49;21.27;;;19.88;;
8476;SDS011;4275;42.854;23.222;2024-02-23T19:18:16;21.58;;;20.17;;
8476;SDS011;4275;42.854;23.222;2024-02-23T19:20:44;21.60;;;20.20;;
8476;SDS011;4275;42.854;23.222;2024-02-23T19:23:11;22.05;;;20.65;;
8476;SDS011;4275;42.854;23.222;2024-02-23T19:25:38;21.25;;;19.85;;
8476;SDS011;4275;42.854;23.222;2024-02-23T19:31:28;22.00;;;20.60;;
8476;SDS011;4275;42.854;23.222;2024-02-23T19:33:55;20.88;;;19.58;;
8476;SDS011;4275;42.854;23.222;2024-02-23T19:36:23;21.45;;;20.15;;